Time;durP1;ratioP1;P1;durP2;ratioP2;P2;SDS_P1;SDS_P2;PMS_P1;PMS_P2;Temp;Humidity;BMP_temperature;BMP_pressure;BME280_temperature;BME280_humidity;BME280_pressure;Samples;Min_cycle;Max_cycle;Signal;HPM_P1;HPM_P2
2023/03/10 00:01:29;;;;;;;12.45;8.38;;;;;;;-0.11;100.00;98457.81;4994750;28;20038;-86
2023/03/10 00:03:57;;;;;;;15.77;8.55;;;;;;;-0.13;100.00;98454.41;4998901;28;20122;-78
2023/03/10 00:06:28;;;;;;;15.15;8.95;;;;;;;-0.13;100.00;98449.25;4994171;28;20050;-77
2023/03/10 00:08:55;;;;;;;17.33;8.77;;;;;;;-0.12;100.00;98450.94;4975317;28;20483;-80
2023/03/10 00:11:22;;;;;;;17.05;9.18;;;;;;;-0.11;100.00;98441.53;5013996;28;20049;-77
2023/03/10 00:13:51;;;;;;;15.98;9.00;;;;;;;-0.11;100.00;98433.81;4992271;28;20038;-76
2023/03/10 00:16:28;;;;;;;14.98;8.75;;;;;;;-0.10;100.00;98420.09;4997348;28;20124;-77
2023/03/10 00:18:55;;;;;;;13.77;7.75;;;;;;;-0.09;100.00;98416.66;5007664;28;20042;-83
2023/03/10 00:21:26;;;;;;;14.77;8.25;;;;;;;-0.11;100.00;98408.09;4995677;28;20136;-77
2023/03/10 00:23:53;;;;;;;15.68;8.60;;;;;;;-0.10;100.00;98400.38;5013561;28;20045;-79
2023/03/10 00:26:22;;;;;;;14.02;8.70;;;;;;;-0.09;100.00;98399.53;4999159;28;20070;-81
2023/03/10 00:28:50;;;;;;;16.58;9.85;;;;;;;-0.10;100.00;98391.81;5000319;28;20081;-76
2023/03/10 00:31:24;;;;;;;16.23;8.52;;;;;;;-0.10;100.00;98384.09;5018205;28;20042;-87
2023/03/10 00:33:51;;;;;;;13.70;8.50;;;;;;;-0.11;100.00;98377.25;5012455;28;20038;-84
2023/03/10 00:36:21;;;;;;;17.25;9.05;;;;;;;-0.09;100.00;98378.94;5013926;28;20072;-80
2023/03/10 00:38:49;;;;;;;13.48;8.43;;;;;;;-0.09;100.00;98376.38;5010852;28;20038;-76
2023/03/10 00:41:29;;;;;;;13.55;7.28;;;;;;;-0.09;100.00;98370.34;4979011;28;20045;-78
2023/03/10 00:43:57;;;;;;;12.75;7.47;;;;;;;-0.08;100.00;98362.66;5011872;28;20111;-83
2023/03/10 00:46:25;;;;;;;12.35;8.05;;;;;;;-0.06;100.00;98360.09;4978954;28;20411;-84
2023/03/10 00:48:53;;;;;;;10.02;6.60;;;;;;;-0.05;100.00;98356.66;4993359;28;20052;-80
2023/03/10 00:51:22;;;;;;;14.80;8.95;;;;;;;-0.06;100.00;98355.78;5004110;28;20045;-79
2023/03/10 00:53:49;;;;;;;14.45;8.57;;;;;;;-0.06;100.00;98365.22;4992922;28;20050;-77
2023/03/10 00:56:25;;;;;;;12.80;8.00;;;;;;;-0.02;100.00;98356.63;5011308;28;20050;-82
2023/03/10 00:58:58;;;;;;;13.05;7.57;;;;;;;-0.01;100.00;98338.63;4994072;28;20099;-91
2023/03/10 01:01:38;;;;;;;10.93;6.00;;;;;;;0.02;100.00;98329.19;4992867;28;20085;-85
2023/03/10 01:04:13;;;;;;;12.05;6.82;;;;;;;-0.01;100.00;98327.50;4975791;28;20046;-81
2023/03/10 01:06:42;;;;;;;11.00;6.72;;;;;;;-0.03;100.00;98324.94;4992958;28;20050;-77
2023/03/10 01:09:08;;;;;;;10.18;5.97;;;;;;;-0.04;100.00;98307.78;5004653;28;20116;-80
2023/03/10 01:11:35;;;;;;;10.93;5.70;;;;;;;-0.04;100.00;98306.91;4994121;28;20097;-79
2023/03/10 01:14:05;;;;;;;9.30;5.65;;;;;;;-0.02;100.00;98294.91;4998378;28;20452;-76
2023/03/10 01:16:32;;;;;;;12.40;6.32;;;;;;;-0.04;100.00;98291.47;4997634;28;20038;-78
2023/03/10 01:19:00;;;;;;;10.55;5.57;;;;;;;-0.05;100.00;98293.19;4992467;28;20096;-82
2023/03/10 01:21:31;;;;;;;11.07;6.18;;;;;;;-0.03;100.00;98288.03;4997242;28;20046;-76
2023/03/10 01:23:59;;;;;;;8.80;6.05;;;;;;;-0.04;100.00;98273.47;4993783;28;20050;-88
2023/03/10 01:26:28;;;;;;;10.70;5.25;;;;;;;-0.04;100.00;98263.19;4995983;28;20143;-80
2023/03/10 01:28:55;;;;;;;9.13;5.55;;;;;;;-0.03;100.00;98267.47;4993445;28;20739;-89
2023/03/10 01:31:22;;;;;;;11.00;5.72;;;;;;;-0.02;100.00;98261.47;4970864;28;20052;-78
2023/03/10 01:33:49;;;;;;;9.45;4.60;;;;;;;-0.05;100.00;98246.91;5000813;28;20057;-79
2023/03/10 01:36:19;;;;;;;8.18;5.55;;;;;;;-0.05;100.00;98240.94;4996909;28;20049;-75
2023/03/10 01:38:48;;;;;;;7.30;4.75;;;;;;;-0.04;100.00;98240.03;4982891;28;20054;-78
2023/03/10 01:41:15;;;;;;;8.50;4.60;;;;;;;-0.04;100.00;98220.34;4997464;28;20042;-82
2023/03/10 01:43:48;;;;;;;8.50;4.85;;;;;;;-0.05;100.00;98207.50;4994820;28;21902;-79
2023/03/10 01:46:27;;;;;;;8.23;4.43;;;;;;;-0.06;100.00;98209.19;4998651;28;20049;-76
2023/03/10 01:48:56;;;;;;;5.63;3.85;;;;;;;-0.06;100.00;98198.91;5011811;28;20049;-83
2023/03/10 01:51:23;;;;;;;11.75;5.78;;;;;;;-0.08;100.00;98190.34;5014348;28;20045;-80
2023/03/10 01:53:52;;;;;;;8.45;4.40;;;;;;;-0.08;100.00;98189.47;4986912;28;20113;-82
2023/03/10 01:56:19;;;;;;;6.82;4.47;;;;;;;-0.11;100.00;98190.34;5021104;28;20046;-83
2023/03/10 01:58:51;;;;;;;7.13;3.92;;;;;;;-0.11;100.00;98184.38;5020843;28;20042;-78
2023/03/10 02:01:18;;;;;;;10.50;5.68;;;;;;;-0.10;100.00;98175.81;5001251;28;20112;-80
2023/03/10 02:03:49;;;;;;;8.95;3.78;;;;;;;-0.12;100.00;98170.63;5015955;28;20060;-83
2023/03/10 02:06:20;;;;;;;6.22;4.03;;;;;;;-0.10;100.00;98176.63;4986716;28;20056;-77
2023/03/10 02:08:53;;;;;;;8.98;4.28;;;;;;;-0.07;100.00;98166.31;4998419;28;20045;-82
2023/03/10 02:11:20;;;;;;;8.17;4.00;;;;;;;-0.08;100.00;98156.94;5012462;28;20049;-82
2023/03/10 02:13:47;;;;;;;6.65;4.47;;;;;;;-0.07;100.00;98147.47;4997515;28;20517;-85
2023/03/10 02:16:16;;;;;;;7.68;4.95;;;;;;;-0.07;100.00;98150.91;5013841;28;20048;-77
2023/03/10 02:18:45;;;;;;;6.53;3.97;;;;;;;-0.06;100.00;98142.31;4983892;28;20520;-77
2023/03/10 02:21:23;;;;;;;7.95;4.57;;;;;;;-0.06;100.00;98137.19;4995173;28;20491;-76
2023/03/10 02:24:20;;;;;;;6.13;4.30;;;;;;;-0.04;100.00;98132.88;4997962;28;20056;-78
2023/03/10 02:27:00;;;;;;;7.32;4.60;;;;;;;-0.05;100.00;98120.03;5011367;28;20121;-79
2023/03/10 02:30:15;;;;;;;7.43;4.20;;;;;;;-0.05;100.00;98114.91;4996682;28;20531;-77
2023/03/10 02:32:49;;;;;;;6.28;4.20;;;;;;;-0.06;100.00;98106.31;4993246;28;20137;-81
2023/03/10 02:35:16;;;;;;;6.70;4.87;;;;;;;-0.07;100.00;98101.19;4981900;28;20084;-77
2023/03/10 02:37:42;;;;;;;8.07;4.78;;;;;;;-0.06;100.00;98098.59;5014134;28;20053;-76
2023/03/10 02:40:39;;;;;;;6.70;3.97;;;;;;;-0.03;100.00;98108.00;4996804;28;20108;-75
2023/03/10 02:43:16;;;;;;;10.27;5.00;;;;;;;-0.01;100.00;98084.00;4998664;28;20046;-90
2023/03/10 02:45:46;;;;;;;6.72;4.18;;;;;;;-0.01;100.00;98078.00;4992796;28;20065;-85
2023/03/10 02:48:27;;;;;;;6.90;4.30;;;;;;;-0.01;100.00;98075.44;4990501;28;20077;-79
2023/03/10 02:50:55;;;;;;;7.00;5.57;;;;;;;-0.03;100.00;98070.31;5009291;28;20125;-87
2023/03/10 02:53:25;;;;;;;5.20;4.00;;;;;;;-0.01;100.00;98055.69;5010179;28;20080;-79
2023/03/10 02:55:53;;;;;;;6.43;5.22;;;;;;;0.06;100.00;98073.66;4996303;28;20274;-77
2023/03/10 02:58:22;;;;;;;6.07;3.50;;;;;;;0.07;100.00;98063.34;5012499;28;20045;-77
2023/03/10 03:00:50;;;;;;;4.82;3.40;;;;;;;0.06;100.00;98038.50;5008231;28;20056;-79
2023/03/10 03:03:19;;;;;;;5.97;3.63;;;;;;;0.07;100.00;98037.63;4997189;28;20141;-77
2023/03/10 03:05:48;;;;;;;6.47;3.53;;;;;;;0.03;100.00;98024.78;4994577;28;20050;-78
2023/03/10 03:08:16;;;;;;;4.97;3.35;;;;;;;-0.01;100.00;98016.28;4980651;28;20361;-77
2023/03/10 03:10:43;;;;;;;4.28;3.42;;;;;;;-0.03;100.00;98016.28;4998426;28;20105;-77
2023/03/10 03:13:10;;;;;;;4.35;3.33;;;;;;;-0.02;100.00;98001.72;5004598;28;20045;-83
2023/03/10 03:15:36;;;;;;;4.45;3.22;;;;;;;-0.03;100.00;97998.28;4995905;28;20049;-77
2023/03/10 03:18:04;;;;;;;4.15;3.08;;;;;;;-0.03;100.00;97997.44;4990416;28;20136;-78
2023/03/10 03:20:31;;;;;;;4.30;3.28;;;;;;;-0.03;100.00;98006.00;4988768;28;20507;-84
2023/03/10 03:23:00;;;;;;;3.70;2.58;;;;;;;-0.01;100.00;98004.25;5008645;28;20743;-81
2023/03/10 03:25:29;;;;;;;3.67;2.83;;;;;;;-0.01;100.00;97996.53;5009645;28;20034;-80
2023/03/10 03:27:59;;;;;;;4.70;3.72;;;;;;;-0.01;100.00;97993.97;4991987;28;20052;-77
2023/03/10 03:30:28;;;;;;;3.22;2.58;;;;;;;-0.01;100.00;97980.28;4994166;28;20042;-78
2023/03/10 03:32:55;;;;;;;3.80;2.28;;;;;;;0.00;100.00;97979.41;5012919;28;20053;-78
2023/03/10 03:35:26;;;;;;;4.00;2.90;;;;;;;0.00;100.00;97979.41;4982394;28;20108;-78
2023/03/10 03:37:54;;;;;;;4.35;2.22;;;;;;;0.02;100.00;97964.81;5013397;28;20107;-80
2023/03/10 03:40:22;;;;;;;3.95;2.72;;;;;;;0.03;100.00;97957.94;4992569;28;20045;-77
2023/03/10 03:42:51;;;;;;;3.03;2.38;;;;;;;0.03;100.00;97955.34;4991815;28;20120;-77
2023/03/10 03:45:21;;;;;;;4.65;3.05;;;;;;;0.05;100.00;97956.19;4994094;28;20560;-77
2023/03/10 03:47:48;;;;;;;4.10;2.15;;;;;;;0.05;100.00;97946.75;5011438;28;20038;-77
2023/03/10 03:50:20;;;;;;;3.53;2.63;;;;;;;0.06;100.00;97950.19;4987251;28;20037;-78
2023/03/10 03:52:47;;;;;;;3.95;2.80;;;;;;;0.09;100.00;97951.03;4993046;28;20524;-87
2023/03/10 03:55:19;;;;;;;2.97;2.63;;;;;;;0.12;100.00;97952.72;4975874;28;20041;-81
2023/03/10 03:57:46;;;;;;;4.20;3.78;;;;;;;0.11;100.00;97956.97;4980491;28;20053;-82
2023/03/10 04:00:23;;;;;;;3.47;2.58;;;;;;;0.11;100.00;97953.56;4994528;28;20053;-81
2023/03/10 04:02:49;;;;;;;3.47;2.58;;;;;;;0.14;100.00;97941.53;5009469;28;20041;-83
2023/03/10 04:05:17;;;;;;;2.83;2.47;;;;;;;0.16;100.00;97944.09;4997608;28;20066;-85
2023/03/10 04:07:44;;;;;;;2.40;2.20;;;;;;;0.18;100.00;97946.63;4987560;28;20499;-82
2023/03/10 04:10:14;;;;;;;2.97;2.47;;;;;;;0.20;100.00;97944.91;4973065;28;20041;-88
2023/03/10 04:12:41;;;;;;;4.43;2.70;;;;;;;0.19;100.00;97938.06;5005975;28;20045;-78
2023/03/10 04:15:08;;;;;;;3.05;2.00;;;;;;;0.19;100.00;97932.91;4987758;28;20516;-78
2023/03/10 04:17:35;;;;;;;2.45;2.25;;;;;;;0.21;100.00;97934.59;4990694;28;20048;-80
2023/03/10 04:20:05;;;;;;;3.40;2.70;;;;;;;0.22;100.00;97932.88;4991434;28;20129;-87
2023/03/10 04:22:32;;;;;;;4.18;2.90;;;;;;;0.23;100.00;97948.28;5004360;28;20052;-85
2023/03/10 04:24:58;;;;;;;3.83;3.10;;;;;;;0.25;100.00;97954.28;4989589;28;20053;-82
2023/03/10 04:27:25;;;;;;;3.28;2.97;;;;;;;0.27;100.00;97949.94;5007318;28;20054;-77
2023/03/10 04:29:51;;;;;;;3.47;3.15;;;;;;;0.27;100.00;97947.38;5005502;28;20050;-77
2023/03/10 04:32:18;;;;;;;2.97;2.35;;;;;;;0.27;100.00;97942.22;4984423;28;20035;-77
2023/03/10 04:34:44;;;;;;;3.60;3.28;;;;;;;0.28;100.00;97940.53;5009550;28;20069;-82
2023/03/10 04:37:11;;;;;;;3.40;2.60;;;;;;;0.28;100.00;97938.78;4977332;28;20104;-79
2023/03/10 04:39:38;;;;;;;3.28;3.08;;;;;;;0.27;100.00;97931.94;5005246;28;20064;-78
2023/03/10 04:42:08;;;;;;;3.55;3.13;;;;;;;0.30;100.00;97933.63;4990514;28;20044;-90
2023/03/10 04:44:35;;;;;;;4.38;2.70;;;;;;;0.29;100.00;97932.78;4990260;28;20061;-78
2023/03/10 04:47:02;;;;;;;4.07;2.83;;;;;;;0.28;100.00;97959.38;4995128;28;20129;-83
2023/03/10 04:49:28;;;;;;;4.47;3.10;;;;;;;0.27;100.00;97949.94;5005147;28;20040;-79
2023/03/10 04:51:55;;;;;;;4.18;3.03;;;;;;;0.28;100.00;97940.53;4993249;28;20052;-77
2023/03/10 04:54:22;;;;;;;3.92;3.53;;;;;;;0.31;100.00;97943.94;4987519;28;20109;-82
2023/03/10 04:56:48;;;;;;;8.40;5.43;;;;;;;0.34;100.00;97968.78;4987522;28;20046;-78
2023/03/10 04:59:15;;;;;;;6.97;5.65;;;;;;;0.37;100.00;97966.16;5008177;28;20049;-79
2023/03/10 05:01:45;;;;;;;5.13;3.63;;;;;;;0.40;100.00;97967.84;5008341;28;20048;-78
2023/03/10 05:04:15;;;;;;;6.72;4.47;;;;;;;0.44;100.00;97962.66;4992726;28;20038;-78
2023/03/10 05:06:47;;;;;;;7.28;4.20;;;;;;;0.47;100.00;97970.31;5011860;28;20076;-78
2023/03/10 05:09:14;;;;;;;5.00;4.53;;;;;;;0.47;100.00;97972.91;4995077;28;20046;-78
2023/03/10 05:11:48;;;;;;;4.55;4.03;;;;;;;0.49;100.00;97978.88;5009622;28;20041;-84
2023/03/10 05:14:17;;;;;;;6.38;5.45;;;;;;;0.54;100.00;97975.41;5004742;28;20072;-79
2023/03/10 05:16:49;;;;;;;3.88;3.58;;;;;;;0.56;100.00;97968.50;4992965;28;20042;-85
2023/03/10 05:19:16;;;;;;;5.30;3.67;;;;;;;0.59;100.00;97971.06;4992521;28;20567;-77
2023/03/10 05:21:48;;;;;;;4.45;3.72;;;;;;;0.61;100.00;97974.44;4972514;28;20145;-83
2023/03/10 05:24:29;;;;;;;5.80;5.07;;;;;;;0.64;100.00;97985.56;4989525;28;20054;-78
2023/03/10 05:26:58;;;;;;;5.32;4.38;;;;;;;0.67;100.00;97994.97;4979844;28;20058;-79
2023/03/10 05:29:45;;;;;;;4.50;4.10;;;;;;;0.71;100.00;97995.81;4973851;28;20503;-84
2023/03/10 05:32:21;;;;;;;4.93;3.80;;;;;;;0.73;100.00;98000.06;4987370;28;20412;-80
2023/03/10 05:34:53;;;;;;;5.70;4.43;;;;;;;0.78;100.00;97992.28;4972457;28;20055;-77
2023/03/10 05:37:20;;;;;;;12.88;4.60;;;;;;;0.79;100.00;97996.56;4991652;28;20048;-84
2023/03/10 05:39:52;;;;;;;5.85;4.22;;;;;;;0.81;100.00;98005.13;4968458;28;20141;-80
2023/03/10 05:42:22;;;;;;;4.35;3.42;;;;;;;0.78;100.00;97994.84;4976483;28;20049;-81
2023/03/10 05:45:11;;;;;;;4.60;3.65;;;;;;;0.77;100.00;97990.56;4973425;28;20508;-79
2023/03/10 05:47:47;;;;;;;3.65;3.35;;;;;;;0.77;100.00;98006.00;4971739;28;20131;-80
2023/03/10 05:50:43;;;;;;;4.32;3.20;;;;;;;0.76;100.00;98006.91;4965821;28;20051;-85
2023/03/10 05:53:10;;;;;;;4.35;3.53;;;;;;;0.76;100.00;98017.22;4986560;28;20070;-80
2023/03/10 05:55:40;;;;;;;3.15;2.88;;;;;;;0.74;100.00;98019.78;4968468;28;20057;-83
2023/03/10 05:58:12;;;;;;;3.95;3.55;;;;;;;0.75;100.00;98024.06;4965143;28;20052;-76
2023/03/10 06:00:42;;;;;;;3.33;3.00;;;;;;;0.72;100.00;98020.66;4967580;28;20062;-81
2023/03/10 06:03:13;;;;;;;4.13;3.53;;;;;;;0.73;100.00;98015.50;4986326;28;20042;-78
2023/03/10 06:05:43;;;;;;;2.92;2.65;;;;;;;0.74;100.00;98019.78;4975499;28;20498;-77
2023/03/10 06:08:26;;;;;;;3.25;2.92;;;;;;;0.75;100.00;98030.94;4973191;28;20053;-92
2023/03/10 06:10:54;;;;;;;3.72;2.78;;;;;;;0.77;100.00;98027.47;4966472;28;20074;-77
2023/03/10 06:13:24;;;;;;;2.78;2.53;;;;;;;0.80;100.00;98024.84;4985264;28;20686;-86
2023/03/10 06:18:40;;;;;;;2.97;2.50;;;;;;;0.84;100.00;98030.00;4976177;28;20062;-87
2023/03/10 06:21:28;;;;;;;;;;;;;;;0.85;100.00;98040.28;4974796;28;20034;-77
2023/03/10 06:23:55;;;;;;;2.20;2.10;;;;;;;0.88;100.00;98054.84;4970264;28;19968;-78
2023/03/10 06:26:23;;;;;;;3.90;2.80;;;;;;;0.85;100.00;98052.28;4971897;28;20157;-78
2023/03/10 06:28:49;;;;;;;3.08;2.85;;;;;;;0.84;100.00;98055.75;4984437;28;20061;-85
2023/03/10 06:31:23;;;;;;;2.92;2.13;;;;;;;0.85;100.00;98055.72;4969100;28;20077;-81
2023/03/10 06:33:51;;;;;;;2.47;2.38;;;;;;;0.88;100.00;98050.53;4938592;28;20042;-80
2023/03/10 06:36:22;;;;;;;7.68;4.80;;;;;;;0.92;100.00;98066.81;4964444;28;20054;-77
2023/03/10 06:38:50;;;;;;;5.53;3.28;;;;;;;0.94;100.00;98063.34;4991695;28;20120;-79
2023/03/10 06:41:17;;;;;;;3.78;2.92;;;;;;;0.96;100.00;98065.88;4995380;28;20042;-81
2023/03/10 06:43:44;;;;;;;3.97;3.10;;;;;;;0.95;100.00;98077.94;4993250;28;20030;-78
2023/03/10 06:46:12;;;;;;;5.60;2.53;;;;;;;0.95;100.00;98072.78;4996269;28;20044;-79
2023/03/10 06:48:40;;;;;;;4.30;2.90;;;;;;;0.95;100.00;98077.06;4995736;28;20049;-76
2023/03/10 06:51:10;;;;;;;2.83;2.58;;;;;;;0.96;100.00;98077.03;4996651;28;20042;-78
2023/03/10 06:53:43;;;;;;;2.97;2.63;;;;;;;0.98;100.00;98084.75;5010328;28;20045;-78
2023/03/10 06:56:17;;;;;;;2.85;2.55;;;;;;;1.03;100.00;98090.72;4990415;28;20096;-81
2023/03/10 06:58:45;;;;;;;3.38;2.35;;;;;;;1.06;100.00;98090.66;4993572;28;20034;-76
2023/03/10 07:01:40;;;;;;;4.47;3.67;;;;;;;1.11;100.00;98088.06;4985380;28;20065;-80
2023/03/10 07:04:07;;;;;;;3.83;3.13;;;;;;;1.08;100.00;98090.66;4988032;28;20038;-77
2023/03/10 07:06:34;;;;;;;3.03;2.72;;;;;;;1.08;100.00;98090.66;4992160;28;20466;-78
2023/03/10 07:09:01;;;;;;;3.95;3.65;;;;;;;1.09;100.00;98090.63;4968983;28;20049;-76
2023/03/10 07:11:27;;;;;;;4.25;3.33;;;;;;;1.09;100.00;98095.78;4978879;28;20037;-77
2023/03/10 07:13:54;;;;;;;4.05;3.63;;;;;;;1.13;100.00;98094.03;4988692;28;20042;-79
2023/03/10 07:16:22;;;;;;;7.03;3.42;;;;;;;1.16;100.00;98088.81;4979274;28;20057;-78
2023/03/10 07:18:49;;;;;;;5.15;3.88;;;;;;;1.20;100.00;98090.50;4993662;28;20062;-78
2023/03/10 07:21:19;;;;;;;5.22;3.25;;;;;;;1.27;100.00;98101.59;4995092;28;20046;-80
2023/03/10 07:23:46;;;;;;;3.92;3.03;;;;;;;1.30;100.00;98102.41;4991873;28;20049;-81
2023/03/10 07:26:15;;;;;;;3.63;2.60;;;;;;;1.30;100.00;98114.44;4989653;28;20049;-78
2023/03/10 07:28:41;;;;;;;3.58;2.95;;;;;;;1.32;100.00;98103.22;4987144;28;20104;-79
2023/03/10 07:31:12;;;;;;;2.90;2.25;;;;;;;1.36;100.00;98114.34;4991025;28;20042;-78
2023/03/10 07:33:39;;;;;;;2.40;2.20;;;;;;;1.41;100.00;98106.56;5008442;28;20049;-81
2023/03/10 07:36:12;;;;;;;5.07;2.50;;;;;;;1.45;100.00;98109.09;4994368;28;20424;-79
2023/03/10 07:38:39;;;;;;;4.53;3.60;;;;;;;1.48;100.00;98115.91;4978226;28;20504;-79
2023/03/10 07:41:12;;;;;;;3.08;2.70;;;;;;;1.45;100.00;98115.97;4995609;28;20049;-82
2023/03/10 07:43:39;;;;;;;7.32;4.18;;;;;;;1.40;100.00;98120.34;4991423;28;20799;-81
2023/03/10 07:46:09;;;;;;;5.65;3.80;;;;;;;1.44;100.00;98125.41;4994756;28;20600;-80
2023/03/10 07:48:36;;;;;;;4.22;2.67;;;;;;;1.47;100.00;98122.81;4990465;28;20049;-77
2023/03/10 07:51:02;;;;;;;3.15;2.85;;;;;;;1.52;100.00;98132.22;4975977;28;20106;-78
2023/03/10 07:53:30;;;;;;;3.55;2.38;;;;;;;1.51;100.00;98133.91;4990844;28;20810;-87
2023/03/10 07:55:56;;;;;;;4.43;2.92;;;;;;;1.58;100.00;98142.47;4991474;28;20537;-77
2023/03/10 07:58:24;;;;;;;2.67;2.47;;;;;;;1.61;100.00;98142.41;4976936;28;20056;-78
2023/03/10 08:00:58;;;;;;;2.83;2.50;;;;;;;1.62;100.00;98133.81;4978415;28;20500;-77
2023/03/10 08:03:27;;;;;;;3.05;2.75;;;;;;;1.56;100.00;98139.88;4993601;28;20042;-77
2023/03/10 08:05:54;;;;;;;3.97;2.85;;;;;;;1.55;100.00;98142.47;4993221;28;20073;-78
2023/03/10 08:08:21;;;;;;;2.72;2.47;;;;;;;1.58;100.00;98143.28;4976116;28;20438;-80
2023/03/10 08:10:48;;;;;;;4.38;3.10;;;;;;;1.61;100.00;98134.66;5013005;28;20081;-76
2023/03/10 08:13:15;;;;;;;3.85;3.13;;;;;;;1.61;100.00;98155.28;4995473;28;20042;-76
2023/03/10 08:15:41;;;;;;;4.10;3.30;;;;;;;1.57;100.00;98166.53;4999067;28;20503;-81
2023/03/10 08:18:09;;;;;;;4.45;2.72;;;;;;;1.45;100.00;98178.69;5000802;28;20033;-80
2023/03/10 08:20:36;;;;;;;3.20;2.67;;;;;;;1.32;100.00;98179.72;4975194;28;20587;-87
2023/03/10 08:23:03;;;;;;;3.78;2.15;;;;;;;1.23;100.00;98183.25;4987731;28;20381;-77
2023/03/10 08:25:30;;;;;;;2.97;2.60;;;;;;;1.22;100.00;98186.69;5013326;28;20041;-79
2023/03/10 08:27:57;;;;;;;3.33;2.78;;;;;;;1.22;100.00;98180.69;4995422;28;20061;-80
2023/03/10 08:30:24;;;;;;;3.58;2.90;;;;;;;1.20;100.00;98180.72;4994363;28;20451;-77
2023/03/10 08:32:50;;;;;;;3.60;2.47;;;;;;;1.26;100.00;98172.88;4999453;28;20084;-80
2023/03/10 08:35:18;;;;;;;3.75;2.85;;;;;;;1.38;100.00;98171.03;4993456;28;20503;-80
2023/03/10 08:37:46;;;;;;;3.70;3.13;;;;;;;1.58;100.00;98168.25;5002299;28;20109;-80
2023/03/10 08:40:15;;;;;;;3.42;2.53;;;;;;;1.77;100.00;98163.69;4998574;28;20456;-77
2023/03/10 08:42:42;;;;;;;3.92;2.25;;;;;;;1.89;100.00;98160.94;4989215;28;20077;-79
2023/03/10 08:45:11;;;;;;;4.13;2.72;;;;;;;1.95;100.00;98166.00;4984281;28;20516;-78
2023/03/10 08:47:38;;;;;;;5.80;2.53;;;;;;;1.97;100.00;98174.56;4993824;28;20049;-77
2023/03/10 08:50:07;;;;;;;3.95;3.25;;;;;;;2.00;100.00;98176.25;4990192;28;20038;-76
2023/03/10 08:52:34;;;;;;;4.50;2.50;;;;;;;2.02;100.00;98174.53;4991901;28;20046;-77
2023/03/10 08:55:00;;;;;;;5.68;2.70;;;;;;;2.06;100.00;98178.75;4996579;28;20477;-75
2023/03/10 08:57:27;;;;;;;5.25;2.85;;;;;;;1.99;100.00;98174.53;5016431;28;20042;-79
2023/03/10 08:59:53;;;;;;;2.75;2.22;;;;;;;1.92;100.00;98175.53;4995006;28;20050;-81
2023/03/10 09:02:20;;;;;;;5.97;3.25;;;;;;;1.93;100.00;98187.53;4995693;28;20048;-82
2023/03/10 09:04:47;;;;;;;2.72;2.00;;;;;;;1.96;100.00;98192.66;4994178;28;20057;-80
2023/03/10 09:07:14;;;;;;;6.65;3.40;;;;;;;1.93;100.00;98192.69;4992756;28;20057;-79
2023/03/10 09:09:41;;;;;;;5.38;3.53;;;;;;;1.93;100.00;98187.53;5015133;28;20038;-77
2023/03/10 09:12:08;;;;;;;3.80;2.85;;;;;;;1.98;100.00;98183.16;5006513;28;20488;-84
2023/03/10 09:14:37;;;;;;;5.47;3.40;;;;;;;2.02;100.00;98179.69;4994930;28;20046;-78
2023/03/10 09:17:04;;;;;;;5.53;3.28;;;;;;;2.03;100.00;98180.53;4998886;28;20037;-78
2023/03/10 09:19:31;;;;;;;7.20;4.22;;;;;;;2.03;100.00;98181.38;5004227;28;20042;-78
2023/03/10 09:21:58;;;;;;;5.72;3.58;;;;;;;2.03;100.00;98191.69;5012903;28;20052;-77
2023/03/10 09:24:25;;;;;;;4.43;3.60;;;;;;;2.08;100.00;98191.63;4995001;28;20057;-76
2023/03/10 09:26:55;;;;;;;6.95;3.03;;;;;;;2.15;100.00;98185.50;5011943;28;20129;-77
2023/03/10 09:29:24;;;;;;;3.67;2.92;;;;;;;2.22;100.00;98183.69;5001380;28;20053;-79
2023/03/10 09:31:51;;;;;;;6.18;2.40;;;;;;;2.25;100.00;98184.47;4986708;28;21893;-77
2023/03/10 09:34:18;;;;;;;3.53;2.20;;;;;;;2.32;100.00;98190.41;4990446;28;20046;-83
2023/03/10 09:36:44;;;;;;;3.80;2.63;;;;;;;2.40;100.00;98188.56;4993183;28;20124;-76
2023/03/10 09:39:14;;;;;;;7.15;3.30;;;;;;;2.50;100.00;98178.94;5006779;28;20038;-76
2023/03/10 09:42:10;;;;;;;4.68;2.40;;;;;;;2.56;100.00;98178.84;4981146;28;20042;-76
2023/03/10 09:45:01;;;;;;;3.38;3.00;;;;;;;2.57;100.00;98190.88;4992801;28;20065;-77
2023/03/10 09:47:50;;;;;;;7.13;4.25;;;;;;;2.51;100.00;98188.38;5000023;28;20065;-77
2023/03/10 09:50:48;;;;;;;5.28;2.78;;;;;;;2.52;100.00;98186.69;5010658;28;20513;-81
2023/03/10 09:53:29;;;;;;;4.28;2.47;;;;;;;2.50;100.00;98181.53;5013693;28;20093;-78
2023/03/10 09:55:57;;;;;;;3.67;3.03;;;;;;;2.54;100.00;98185.75;4992496;28;20046;-77
2023/03/10 09:58:39;;;;;;;3.33;2.85;;;;;;;2.50;100.00;98181.53;4975154;28;20038;-84
2023/03/10 10:01:14;;;;;;;6.97;3.22;;;;;;;2.49;100.00;98200.50;4969128;28;20085;-89
2023/03/10 10:03:47;;;;;;;5.15;2.75;;;;;;;2.47;100.00;98197.06;4993175;28;20078;-77
2023/03/10 10:06:24;;;;;;;12.05;5.43;;;;;;;2.42;100.00;98191.13;4997627;28;20033;-78
2023/03/10 10:08:58;;;;;;;2.40;1.70;;;;;;;2.35;100.00;98195.53;4993257;28;20120;-79
2023/03/10 10:11:25;;;;;;;3.40;2.50;;;;;;;2.33;100.00;98193.84;5008999;28;20034;-79
2023/03/10 10:14:15;;;;;;;8.13;3.25;;;;;;;2.33;100.00;98199.00;4990126;28;20061;-77
2023/03/10 10:17:00;;;;;;;3.55;2.40;;;;;;;2.32;100.00;98203.31;4992575;28;20045;-76
2023/03/10 10:19:28;;;;;;;7.97;3.80;;;;;;;2.40;100.00;98211.81;4991593;28;20653;-76
2023/03/10 10:22:24;;;;;;;10.43;5.32;;;;;;;2.40;100.00;98210.94;4977115;28;20064;-80
2023/03/10 10:25:09;;;;;;;4.53;2.88;;;;;;;2.33;100.00;98211.94;5002149;28;20070;-78
2023/03/10 10:27:37;;;;;;;4.78;3.00;;;;;;;2.36;100.00;98206.69;5025259;28;20050;-77
2023/03/10 10:30:30;;;;;;;12.00;4.63;;;;;;;2.41;100.00;98207.50;5001850;28;20366;-79
2023/03/10 10:33:01;;;;;;;5.15;4.65;;;;;;;2.47;100.00;98207.41;5010288;28;20552;-82
2023/03/10 10:35:33;;;;;;;9.68;4.63;;;;;;;2.54;100.00;98211.56;4997905;28;20096;-78
2023/03/10 10:38:12;;;;;;;5.20;3.58;;;;;;;2.61;100.00;98218.38;4997816;28;20052;-79
2023/03/10 10:41:15;;;;;;;7.68;3.90;;;;;;;2.63;100.00;98216.63;5013034;28;20436;-78
2023/03/10 10:43:49;;;;;;;5.80;3.97;;;;;;;2.69;100.00;98218.25;4998308;28;20053;-79
2023/03/10 10:46:28;;;;;;;7.32;4.30;;;;;;;2.71;100.00;98218.22;4995200;28;20034;-78
2023/03/10 10:49:19;;;;;;;3.92;3.45;;;;;;;2.67;100.00;98225.16;4979664;28;20049;-78
2023/03/10 10:52:05;;;;;;;3.70;3.38;;;;;;;2.62;100.00;98222.66;4998530;28;20133;-78
2023/03/10 10:54:38;;;;;;;4.03;3.22;;;;;;;2.56;100.00;98216.75;4990154;28;20539;-76
2023/03/10 10:57:18;;;;;;;12.07;3.92;;;;;;;2.59;100.00;98214.09;5009458;28;20042;-78
2023/03/10 10:59:44;;;;;;;6.22;3.53;;;;;;;2.67;100.00;98214.81;4998113;28;20038;-78
2023/03/10 11:02:32;;;;;;;4.80;2.80;;;;;;;2.71;100.00;98216.50;4999277;28;20436;-79
2023/03/10 11:05:25;;;;;;;4.30;2.88;;;;;;;2.71;100.00;98213.91;5000531;28;20049;-78
2023/03/10 11:07:51;;;;;;;2.85;2.65;;;;;;;2.76;100.00;98213.81;4980976;28;20044;-82
2023/03/10 11:10:27;;;;;;;4.45;2.63;;;;;;;2.89;100.00;98201.56;5013244;28;20038;-77
2023/03/10 11:13:16;;;;;;;3.15;2.85;;;;;;;2.98;100.00;98209.13;4978687;28;20099;-79
2023/03/10 11:15:57;;;;;;;3.30;2.72;;;;;;;2.96;100.00;98210.91;4993842;28;20597;-80
2023/03/10 11:18:35;;;;;;;4.47;2.95;;;;;;;2.91;100.00;98218.72;4997579;28;20056;-80
2023/03/10 11:21:15;;;;;;;4.57;3.28;;;;;;;2.91;100.00;98213.56;5008701;28;20869;-78
2023/03/10 11:24:13;;;;;;;3.40;2.67;;;;;;;2.93;100.00;98209.22;5012472;28;20469;-78
2023/03/10 11:26:55;;;;;;;2.88;2.60;;;;;;;2.91;100.00;98212.72;4990294;28;20041;-76
2023/03/10 11:29:53;;;;;;;3.15;2.03;;;;;;;2.84;100.00;98217.13;5013514;28;20049;-77
2023/03/10 11:32:39;;;;;;;2.53;2.10;;;;;;;2.69;100.00;98209.66;4992877;28;20095;-77
2023/03/10 11:35:32;;;;;;;3.03;2.40;;;;;;;2.63;100.00;98210.59;4978233;28;20133;-80
2023/03/10 11:38:23;;;;;;;4.18;2.65;;;;;;;2.65;100.00;98207.09;4991754;28;20042;-77
2023/03/10 11:41:18;;;;;;;2.85;2.30;;;;;;;2.80;100.00;98221.50;5010795;28;20125;-78
2023/03/10 11:44:07;;;;;;;2.97;2.20;;;;;;;2.91;100.00;98215.31;5009788;28;20038;-77
2023/03/10 11:46:48;;;;;;;2.80;2.35;;;;;;;2.89;100.00;98202.38;4998310;28;20112;-79
2023/03/10 11:49:26;;;;;;;4.90;3.38;;;;;;;2.93;100.00;98192.84;5001036;28;20033;-77
2023/03/10 11:52:24;;;;;;;4.43;2.70;;;;;;;3.08;100.00;98181.41;4997647;28;20069;-77
2023/03/10 11:55:05;;;;;;;12.05;7.13;;;;;;;3.15;100.00;98180.41;4994386;28;20125;-77